Aérodrome :
LOGIN :

S'inscrire | Disclaimer

   EN    FR    IT 

 










Légende :    VFR   VFR Marginal   IFR   IFR Intensif   IFR Très Intensif
Visi : 
Plafond : 
>= 8 km
>= 3000ft
5 à 8 km
1000 à 3000 ft
1500m à 5 km
500 à 1000 ft
800 à 1500m
200 à 500 ft
< 800m
< 200 ft
Symboles :   Orages  Brouillard  Fortes neiges  Fortes précipitations  Vent > 20 kt
SIGMETs :   Divers  Orages  Givrage  Turbulence  Onde Orograph.  Cendres Volcan.






- Altitude de l'aérodrome : 364 ft


LFAQ - Albert Bray

DERNIER METAR :
  • 291500Z AUTO 28012KT 9999 BKN030 BKN037 09/04 Q1013 BECMG 21010KT

METARs EXPIRÉS :
  • 291430Z AUTO 28017KT CAVOK 08/03 Q1013 BECMG 21010KT
  • 291400Z AUTO 28017KT 9999 FEW034 SCT040 08/04 Q1012 TEMPO 27015G25KT
  • 291330Z AUTO 28016KT 9999 BKN037 08/03 Q1012 TEMPO 27015G25KT
  • 291300Z AUTO 28018KT 9999 SCT034 BKN041 08/03 Q1012 TEMPO 27015G25KT
  • 291230Z AUTO 29018KT 9999 BKN033 BKN041 09/04 Q1012 TEMPO 27015G25KT

TAF TAF LFAQ
Valide du 29 à 15h jusqu'au 30 à 00h UTC


291400Z 2915/2924 27015KT 9999 SCT030
TEMPO 2915/2916 27015G25KT
BECMG 2916/2919 21010KT



MET'MAP, la Météo Aéronautique d'un coup d'oeil ! - Copyright ORBIFLY Décembre 2007 - Disclaimer

ORBIFLY MET'MAP TEAM :

Programmation & Développement : Alexandra Zaïnal
Sur une idée originale de : Baudouin d'Aumeries
Assistance à la programmation : Marc-Olivier Méhu
Soutien technique & logistique : Manuel Goepfert

Contact : metmap@orbifly.com




SOURCES & CREDITS :

   NOAA